ADDS METAR Data

Data at: 0457 UTC 20 Apr 2018

METAR for:CYHZ (Halifax/Stanfield In, NS, CN)
Text:CYHZ 200400Z 03007KT 3SM -RASN OVC003 02/02 A2959 RMK NS8 SLP025
Temperature: 2.0°C ( 36°F)
Dewpoint: 2.0°C ( 36°F) [RH = 100%]
Pressure (altimeter):29.59 inches Hg (1002.1 mb) [Sea level pressure: 1002.5 mb]
Winds:from the NNE (30 degrees) at 8 MPH (7 knots; 3.6 m/s)
Visibility: 3 sm ( 5 km)
Ceiling:300 feet AGL
Clouds: overcast cloud deck at 300 feet AGL
Weather:-RA -SN (light rain, light snow)